sensor_id;sensor_type;location;lat;lon;timestamp;temperature;humidity
25248;DHT22;13191;47.472;11.214;2023-03-30T04:50:56;5.20;99.90
25248;DHT22;13191;47.472;11.214;2023-03-30T04:53:21;5.00;99.90
25248;DHT22;13191;47.472;11.214;2023-03-30T04:55:48;4.80;99.90
25248;DHT22;13191;47.472;11.214;2023-03-30T04:58:14;4.60;99.90
25248;DHT22;13191;47.472;11.214;2023-03-30T05:00:39;4.50;99.90
25248;DHT22;13191;47.472;11.214;2023-03-30T05:03:05;4.50;99.90
25248;DHT22;13191;47.472;11.214;2023-03-30T05:05:31;4.50;99.90
25248;DHT22;13191;47.472;11.214;2023-03-30T05:07:57;4.40;99.90
25248;DHT22;13191;47.472;11.214;2023-03-30T05:10:23;4.50;99.90
25248;DHT22;13191;47.472;11.214;2023-03-30T05:12:48;4.40;99.90
25248;DHT22;13191;47.472;11.214;2023-03-30T05:15:14;4.50;99.90
25248;DHT22;13191;47.472;11.214;2023-03-30T05:17:40;4.50;99.90
25248;DHT22;13191;47.472;11.214;2023-03-30T05:20:06;4.60;99.90
25248;DHT22;13191;47.472;11.214;2023-03-30T05:22:34;4.60;99.90
25248;DHT22;13191;47.472;11.214;2023-03-30T05:25:01;4.60;99.90
25248;DHT22;13191;47.472;11.214;2023-03-30T05:27:26;4.60;99.90
25248;DHT22;13191;47.472;11.214;2023-03-30T05:29:52;4.60;99.90
25248;DHT22;13191;47.472;11.214;2023-03-30T05:32:18;4.60;99.90
25248;DHT22;13191;47.472;11.214;2023-03-30T05:34:43;4.70;99.90
25248;DHT22;13191;47.472;11.214;2023-03-30T05:37:09;4.80;99.90
25248;DHT22;13191;47.472;11.214;2023-03-30T05:39:34;4.90;99.90
25248;DHT22;13191;47.472;11.214;2023-03-30T05:42:00;4.90;99.90
25248;DHT22;13191;47.472;11.214;2023-03-30T05:44:26;5.00;99.90
25248;DHT22;13191;47.472;11.214;2023-03-30T05:46:52;5.10;99.90
25248;DHT22;13191;47.472;11.214;2023-03-30T05:49:17;5.10;99.90
25248;DHT22;13191;47.472;11.214;2023-03-30T05:51:43;5.10;99.90
25248;DHT22;13191;47.472;11.214;2023-03-30T06:18:34;5.60;99.90
25248;DHT22;13191;47.472;11.214;2023-03-30T06:21:00;5.40;99.90
25248;DHT22;13191;47.472;11.214;2023-03-30T06:23:26;5.40;99.90
25248;DHT22;13191;47.472;11.214;2023-03-30T06:25:52;5.30;99.90
25248;DHT22;13191;47.472;11.214;2023-03-30T06:28:19;5.20;99.90
25248;DHT22;13191;47.472;11.214;2023-03-30T06:30:45;5.10;99.90
25248;DHT22;13191;47.472;11.214;2023-03-30T06:33:14;5.20;99.90
25248;DHT22;13191;47.472;11.214;2023-03-30T06:35:50;5.30;99.90
25248;DHT22;13191;47.472;11.214;2023-03-30T06:38:17;5.30;99.90
25248;DHT22;13191;47.472;11.214;2023-03-30T06:40:43;5.40;99.90
25248;DHT22;13191;47.472;11.214;2023-03-30T06:43:19;5.40;99.90
25248;DHT22;13191;47.472;11.214;2023-03-30T06:45:52;5.30;99.90
25248;DHT22;13191;47.472;11.214;2023-03-30T06:48:18;5.30;99.90
25248;DHT22;13191;47.472;11.214;2023-03-30T06:50:51;5.30;99.90
25248;DHT22;13191;47.472;11.214;2023-03-30T06:53:18;5.30;99.90
25248;DHT22;13191;47.472;11.214;2023-03-30T06:55:44;5.40;99.90
25248;DHT22;13191;47.472;11.214;2023-03-30T06:58:09;5.30;99.90
25248;DHT22;13191;47.472;11.214;2023-03-30T07:07:54;5.80;99.90
25248;DHT22;13191;47.472;11.214;2023-03-30T07:10:20;5.80;99.90
25248;DHT22;13191;47.472;11.214;2023-03-30T07:12:46;5.80;99.90
25248;DHT22;13191;47.472;11.214;2023-03-30T07:15:12;5.90;99.90
25248;DHT22;13191;47.472;11.214;2023-03-30T07:17:37;5.80;99.90
25248;DHT22;13191;47.472;11.214;2023-03-30T07:20:03;5.70;99.90
25248;DHT22;13191;47.472;11.214;2023-03-30T07:22:30;5.80;99.90
25248;DHT22;13191;47.472;11.214;2023-03-30T07:24:55;5.90;99.90
25248;DHT22;13191;47.472;11.214;2023-03-30T07:27:21;5.90;99.90
25248;DHT22;13191;47.472;11.214;2023-03-30T07:29:52;5.90;99.90
25248;DHT22;13191;47.472;11.214;2023-03-30T07:34:43;6.40;99.90
25248;DHT22;13191;47.472;11.214;2023-03-30T07:37:10;6.50;99.90
25248;DHT22;13191;47.472;11.214;2023-03-30T07:39:36;6.50;99.90
25248;DHT22;13191;47.472;11.214;2023-03-30T07:42:02;6.50;99.90
25248;DHT22;13191;47.472;11.214;2023-03-30T07:44:27;6.60;99.90
25248;DHT22;13191;47.472;11.214;2023-03-30T07:46:55;6.70;99.90
25248;DHT22;13191;47.472;11.214;2023-03-30T07:49:21;6.80;99.90
25248;DHT22;13191;47.472;11.214;2023-03-30T07:51:47;6.80;99.90
25248;DHT22;13191;47.472;11.214;2023-03-30T07:54:12;6.90;99.90
25248;DHT22;13191;47.472;11.214;2023-03-30T07:56:38;7.00;99.90
25248;DHT22;13191;47.472;11.214;2023-03-30T07:59:04;7.10;99.90
25248;DHT22;13191;47.472;11.214;2023-03-30T08:01:30;7.30;99.90
25248;DHT22;13191;47.472;11.214;2023-03-30T08:03:57;7.30;99.90
25248;DHT22;13191;47.472;11.214;2023-03-30T08:06:23;7.30;99.90
25248;DHT22;13191;47.472;11.214;2023-03-30T08:08:48;7.20;99.90
25248;DHT22;13191;47.472;11.214;2023-03-30T08:11:14;7.30;99.90
25248;DHT22;13191;47.472;11.214;2023-03-30T08:16:09;7.60;99.90
25248;DHT22;13191;47.472;11.214;2023-03-30T08:18:35;7.60;99.90
25248;DHT22;13191;47.472;11.214;2023-03-30T08:21:01;7.90;99.90
25248;DHT22;13191;47.472;11.214;2023-03-30T08:23:27;7.90;99.90
25248;DHT22;13191;47.472;11.214;2023-03-30T08:25:55;7.90;99.90
25248;DHT22;13191;47.472;11.214;2023-03-30T08:28:20;8.00;99.90
25248;DHT22;13191;47.472;11.214;2023-03-30T08:30:46;8.10;99.90
25248;DHT22;13191;47.472;11.214;2023-03-30T08:33:12;8.10;99.90
25248;DHT22;13191;47.472;11.214;2023-03-30T08:35:39;8.30;99.90
25248;DHT22;13191;47.472;11.214;2023-03-30T08:38:04;8.30;99.90
25248;DHT22;13191;47.472;11.214;2023-03-30T08:40:30;8.30;99.90
25248;DHT22;13191;47.472;11.214;2023-03-30T08:43:02;8.40;99.90
25248;DHT22;13191;47.472;11.214;2023-03-30T08:45:35;8.50;99.90
25248;DHT22;13191;47.472;11.214;2023-03-30T08:48:01;8.80;99.90
25248;DHT22;13191;47.472;11.214;2023-03-30T08:52:56;8.60;99.90
25248;DHT22;13191;47.472;11.214;2023-03-30T08:55:23;8.70;99.90
25248;DHT22;13191;47.472;11.214;2023-03-30T08:57:50;8.90;99.90
25248;DHT22;13191;47.472;11.214;2023-03-30T09:02:52;8.90;99.90
25248;DHT22;13191;47.472;11.214;2023-03-30T09:05:23;9.00;99.90
25248;DHT22;13191;47.472;11.214;2023-03-30T09:10:19;8.90;99.90
25248;DHT22;13191;47.472;11.214;2023-03-30T09:12:47;8.90;99.90
25248;DHT22;13191;47.472;11.214;2023-03-30T09:15:17;9.00;99.90
25248;DHT22;13191;47.472;11.214;2023-03-30T09:17:50;9.00;99.90
25248;DHT22;13191;47.472;11.214;2023-03-30T09:22:47;9.00;99.90
25248;DHT22;13191;47.472;11.214;2023-03-30T09:25:37;9.10;99.90
25248;DHT22;13191;47.472;11.214;2023-03-30T09:30:42;9.10;99.90
25248;DHT22;13191;47.472;11.214;2023-03-30T09:35:40;9.20;99.90
25248;DHT22;13191;47.472;11.214;2023-03-30T09:38:10;9.20;99.90
25248;DHT22;13191;47.472;11.214;2023-03-30T09:40:41;9.20;99.90
25248;DHT22;13191;47.472;11.214;2023-03-30T09:43:18;9.30;99.90
25248;DHT22;13191;47.472;11.214;2023-03-30T09:58:19;9.80;99.90
25248;DHT22;13191;47.472;11.214;2023-03-30T10:00:59;10.10;99.90
25248;DHT22;13191;47.472;11.214;2023-03-30T10:03:25;10.20;99.90
25248;DHT22;13191;47.472;11.214;2023-03-30T10:05:59;10.30;99.90
25248;DHT22;13191;47.472;11.214;2023-03-30T10:08:25;10.20;99.90
25248;DHT22;13191;47.472;11.214;2023-03-30T10:10:55;10.20;99.90
25248;DHT22;13191;47.472;11.214;2023-03-30T10:13:30;10.30;99.90
25248;DHT22;13191;47.472;11.214;2023-03-30T10:15:58;10.50;99.90
25248;DHT22;13191;47.472;11.214;2023-03-30T10:18:27;10.70;99.90
25248;DHT22;13191;47.472;11.214;2023-03-30T10:23:38;11.30;99.90
25248;DHT22;13191;47.472;11.214;2023-03-30T10:26:09;11.70;99.90
25248;DHT22;13191;47.472;11.214;2023-03-30T10:28:37;12.00;99.90
25248;DHT22;13191;47.472;11.214;2023-03-30T10:31:04;12.20;99.90
25248;DHT22;13191;47.472;11.214;2023-03-30T10:35:58;12.70;99.90
25248;DHT22;13191;47.472;11.214;2023-03-30T10:38:28;12.90;99.90
25248;DHT22;13191;47.472;11.214;2023-03-30T10:40:55;13.00;99.90
25248;DHT22;13191;47.472;11.214;2023-03-30T10:43:28;13.00;99.90
25248;DHT22;13191;47.472;11.214;2023-03-30T10:45:56;13.20;99.90
25248;DHT22;13191;47.472;11.214;2023-03-30T10:53:23;12.90;99.90
25248;DHT22;13191;47.472;11.214;2023-03-30T11:03:39;13.00;99.90
25248;DHT22;13191;47.472;11.214;2023-03-30T11:06:14;13.10;99.90
25248;DHT22;13191;47.472;11.214;2023-03-30T11:08:42;13.20;99.90
25248;DHT22;13191;47.472;11.214;2023-03-30T11:11:21;13.20;99.90
25248;DHT22;13191;47.472;11.214;2023-03-30T11:13:58;13.00;99.90
25248;DHT22;13191;47.472;11.214;2023-03-30T11:16:29;13.00;99.90
25248;DHT22;13191;47.472;11.214;2023-03-30T11:21:45;12.70;99.90
25248;DHT22;13191;47.472;11.214;2023-03-30T11:26:44;12.20;99.90
25248;DHT22;13191;47.472;11.214;2023-03-30T11:29:32;12.10;99.90
25248;DHT22;13191;47.472;11.214;2023-03-30T11:34:52;12.20;99.90
25248;DHT22;13191;47.472;11.214;2023-03-30T11:37:32;12.20;99.90
25248;DHT22;13191;47.472;11.214;2023-03-30T11:42:46;12.30;99.90
25248;DHT22;13191;47.472;11.214;2023-03-30T11:45:20;12.40;99.90
25248;DHT22;13191;47.472;11.214;2023-03-30T11:53:08;12.40;99.90
25248;DHT22;13191;47.472;11.214;2023-03-30T11:55:45;12.40;99.90
25248;DHT22;13191;47.472;11.214;2023-03-30T12:03:35;12.00;99.90
25248;DHT22;13191;47.472;11.214;2023-03-30T12:06:10;11.90;99.90
25248;DHT22;13191;47.472;11.214;2023-03-30T12:13:57;11.60;99.90
25248;DHT22;13191;47.472;11.214;2023-03-30T12:16:23;11.60;99.90
25248;DHT22;13191;47.472;11.214;2023-03-30T12:19:02;11.40;99.90
25248;DHT22;13191;47.472;11.214;2023-03-30T12:24:03;11.30;99.90
25248;DHT22;13191;47.472;11.214;2023-03-30T12:26:30;11.00;99.90
25248;DHT22;13191;47.472;11.214;2023-03-30T12:34:14;10.40;99.90
25248;DHT22;13191;47.472;11.214;2023-03-30T12:36:40;10.30;99.90
25248;DHT22;13191;47.472;11.214;2023-03-30T12:39:20;10.20;99.90
25248;DHT22;13191;47.472;11.214;2023-03-30T12:41:53;10.20;99.90
25248;DHT22;13191;47.472;11.214;2023-03-30T12:44:23;10.00;99.90
25248;DHT22;13191;47.472;11.214;2023-03-30T12:46:56;10.00;99.90
25248;DHT22;13191;47.472;11.214;2023-03-30T12:49:28;9.90;99.90
25248;DHT22;13191;47.472;11.214;2023-03-30T13:00:17;9.90;99.90
25248;DHT22;13191;47.472;11.214;2023-03-30T13:08:04;10.00;99.90
25248;DHT22;13191;47.472;11.214;2023-03-30T13:10:35;10.00;99.90
25248;DHT22;13191;47.472;11.214;2023-03-30T13:13:02;10.00;99.90
25248;DHT22;13191;47.472;11.214;2023-03-30T13:18:21;10.20;99.90
25248;DHT22;13191;47.472;11.214;2023-03-30T13:25:45;10.30;99.90
25248;DHT22;13191;47.472;11.214;2023-03-30T13:28:35;10.30;99.90
25248;DHT22;13191;47.472;11.214;2023-03-30T13:33:33;10.30;99.90
25248;DHT22;13191;47.472;11.214;2023-03-30T13:51:37;10.10;99.90
25248;DHT22;13191;47.472;11.214;2023-03-30T13:54:06;10.10;99.90
25248;DHT22;13191;47.472;11.214;2023-03-30T13:56:35;10.10;99.90
25248;DHT22;13191;47.472;11.214;2023-03-30T13:59:03;10.10;99.90
25248;DHT22;13191;47.472;11.214;2023-03-30T14:01:31;10.10;99.90
25248;DHT22;13191;47.472;11.214;2023-03-30T14:03:58;10.00;99.90
25248;DHT22;13191;47.472;11.214;2023-03-30T14:06:26;10.10;99.90
25248;DHT22;13191;47.472;11.214;2023-03-30T14:09:07;10.10;99.90
25248;DHT22;13191;47.472;11.214;2023-03-30T14:11:40;10.00;99.90
25248;DHT22;13191;47.472;11.214;2023-03-30T14:14:14;10.00;99.90
25248;DHT22;13191;47.472;11.214;2023-03-30T14:16:40;10.00;99.90
25248;DHT22;13191;47.472;11.214;2023-03-30T14:21:43;9.90;99.90
25248;DHT22;13191;47.472;11.214;2023-03-30T14:24:14;9.90;99.90
25248;DHT22;13191;47.472;11.214;2023-03-30T14:26:41;10.00;99.90
25248;DHT22;13191;47.472;11.214;2023-03-30T14:29:09;10.00;99.90
25248;DHT22;13191;47.472;11.214;2023-03-30T14:31:39;10.00;99.90
25248;DHT22;13191;47.472;11.214;2023-03-30T14:37:10;10.00;99.90
25248;DHT22;13191;47.472;11.214;2023-03-30T14:39:37;9.70;99.90
25248;DHT22;13191;47.472;11.214;2023-03-30T14:42:08;9.50;99.90
25248;DHT22;13191;47.472;11.214;2023-03-30T14:44:36;9.60;99.90
25248;DHT22;13191;47.472;11.214;2023-03-30T14:47:02;9.60;99.90
25248;DHT22;13191;47.472;11.214;2023-03-30T14:49:29;9.50;99.90
25248;DHT22;13191;47.472;11.214;2023-03-30T14:52:13;9.40;99.90
25248;DHT22;13191;47.472;11.214;2023-03-30T14:54:39;9.50;99.90
25248;DHT22;13191;47.472;11.214;2023-03-30T14:57:05;9.50;99.90
25248;DHT22;13191;47.472;11.214;2023-03-30T14:59:32;9.60;99.90
25248;DHT22;13191;47.472;11.214;2023-03-30T15:01:59;9.60;99.90
25248;DHT22;13191;47.472;11.214;2023-03-30T15:04:27;9.60;99.90
25248;DHT22;13191;47.472;11.214;2023-03-30T15:06:53;9.50;99.90
25248;DHT22;13191;47.472;11.214;2023-03-30T15:09:20;9.20;99.90
25248;DHT22;13191;47.472;11.214;2023-03-30T15:14:18;8.80;99.90
25248;DHT22;13191;47.472;11.214;2023-03-30T15:16:46;8.80;99.90
25248;DHT22;13191;47.472;11.214;2023-03-30T15:21:49;9.10;99.90
25248;DHT22;13191;47.472;11.214;2023-03-30T15:24:16;9.00;99.90
25248;DHT22;13191;47.472;11.214;2023-03-30T15:26:47;9.10;99.90
25248;DHT22;13191;47.472;11.214;2023-03-30T15:29:14;9.10;99.90
25248;DHT22;13191;47.472;11.214;2023-03-30T15:31:42;9.20;99.90
25248;DHT22;13191;47.472;11.214;2023-03-30T15:34:12;9.30;99.90
25248;DHT22;13191;47.472;11.214;2023-03-30T15:36:38;9.30;99.90
25248;DHT22;13191;47.472;11.214;2023-03-30T15:39:18;9.40;99.90
25248;DHT22;13191;47.472;11.214;2023-03-30T15:42:03;9.40;99.90
25248;DHT22;13191;47.472;11.214;2023-03-30T15:44:33;9.40;99.90
25248;DHT22;13191;47.472;11.214;2023-03-30T15:47:00;9.40;99.90
25248;DHT22;13191;47.472;11.214;2023-03-30T15:49:35;9.40;99.90
25248;DHT22;13191;47.472;11.214;2023-03-30T15:52:07;9.40;99.90
25248;DHT22;13191;47.472;11.214;2023-03-30T15:54:40;9.30;99.90
25248;DHT22;13191;47.472;11.214;2023-03-30T15:59:39;9.30;99.90
25248;DHT22;13191;47.472;11.214;2023-03-30T16:02:14;9.30;99.90
25248;DHT22;13191;47.472;11.214;2023-03-30T16:04:40;9.40;99.90
25248;DHT22;13191;47.472;11.214;2023-03-30T16:07:13;9.40;99.90
25248;DHT22;13191;47.472;11.214;2023-03-30T16:09:40;9.30;99.90
25248;DHT22;13191;47.472;11.214;2023-03-30T16:12:05;9.10;99.90
25248;DHT22;13191;47.472;11.214;2023-03-30T16:14:33;9.20;99.90
25248;DHT22;13191;47.472;11.214;2023-03-30T16:17:00;9.20;99.90
25248;DHT22;13191;47.472;11.214;2023-03-30T16:19:25;9.10;99.90
25248;DHT22;13191;47.472;11.214;2023-03-30T16:21:51;9.10;99.90
25248;DHT22;13191;47.472;11.214;2023-03-30T16:24:17;9.00;99.90
25248;DHT22;13191;47.472;11.214;2023-03-30T16:26:42;9.00;99.90
25248;DHT22;13191;47.472;11.214;2023-03-30T16:29:11;9.10;99.90
25248;DHT22;13191;47.472;11.214;2023-03-30T16:31:39;9.20;99.90
25248;DHT22;13191;47.472;11.214;2023-03-30T16:34:04;9.30;99.90
25248;DHT22;13191;47.472;11.214;2023-03-30T16:36:31;9.40;99.90
25248;DHT22;13191;47.472;11.214;2023-03-30T16:38:58;9.40;99.90
25248;DHT22;13191;47.472;11.214;2023-03-30T16:41:24;9.40;99.90
25248;DHT22;13191;47.472;11.214;2023-03-30T16:43:51;9.50;99.90
25248;DHT22;13191;47.472;11.214;2023-03-30T16:46:17;9.50;99.90
25248;DHT22;13191;47.472;11.214;2023-03-30T16:48:43;9.50;99.90
25248;DHT22;13191;47.472;11.214;2023-03-30T16:51:11;9.50;99.90
25248;DHT22;13191;47.472;11.214;2023-03-30T16:53:36;9.60;99.90
25248;DHT22;13191;47.472;11.214;2023-03-30T16:56:02;9.50;99.90
25248;DHT22;13191;47.472;11.214;2023-03-30T16:58:27;9.50;99.90
25248;DHT22;13191;47.472;11.214;2023-03-30T17:00:56;9.50;99.90
25248;DHT22;13191;47.472;11.214;2023-03-30T17:03:28;9.40;99.90
25248;DHT22;13191;47.472;11.214;2023-03-30T17:05:54;9.30;99.90
25248;DHT22;13191;47.472;11.214;2023-03-30T17:08:24;9.30;99.90
25248;DHT22;13191;47.472;11.214;2023-03-30T17:10:51;9.30;99.90
25248;DHT22;13191;47.472;11.214;2023-03-30T17:13:17;9.40;99.90
25248;DHT22;13191;47.472;11.214;2023-03-30T17:15:42;9.40;99.90
25248;DHT22;13191;47.472;11.214;2023-03-30T17:18:12;9.40;99.90
25248;DHT22;13191;47.472;11.214;2023-03-30T17:20:38;9.40;99.90
25248;DHT22;13191;47.472;11.214;2023-03-30T17:23:04;9.20;99.90
25248;DHT22;13191;47.472;11.214;2023-03-30T17:25:30;9.20;99.90
25248;DHT22;13191;47.472;11.214;2023-03-30T17:27:56;9.10;99.90
25248;DHT22;13191;47.472;11.214;2023-03-30T17:30:27;9.00;99.90
25248;DHT22;13191;47.472;11.214;2023-03-30T17:32:53;8.90;99.90
25248;DHT22;13191;47.472;11.214;2023-03-30T17:35:20;8.90;99.90
25248;DHT22;13191;47.472;11.214;2023-03-30T17:37:46;9.00;99.90
25248;DHT22;13191;47.472;11.214;2023-03-30T17:40:25;8.90;99.90
25248;DHT22;13191;47.472;11.214;2023-03-30T17:42:51;8.90;99.90
25248;DHT22;13191;47.472;11.214;2023-03-30T17:45:19;8.90;99.90
25248;DHT22;13191;47.472;11.214;2023-03-30T17:47:45;8.90;99.90
25248;DHT22;13191;47.472;11.214;2023-03-30T17:52:42;8.70;99.90
25248;DHT22;13191;47.472;11.214;2023-03-30T17:55:08;8.70;99.90
25248;DHT22;13191;47.472;11.214;2023-03-30T17:57:33;8.80;99.90
25248;DHT22;13191;47.472;11.214;2023-03-30T18:02:25;8.50;99.90
25248;DHT22;13191;47.472;11.214;2023-03-30T18:09:42;8.20;99.90
25248;DHT22;13191;47.472;11.214;2023-03-30T18:12:08;8.30;99.90
25248;DHT22;13191;47.472;11.214;2023-03-30T18:14:33;8.40;99.90
25248;DHT22;13191;47.472;11.214;2023-03-30T18:16:59;8.30;99.90
25248;DHT22;13191;47.472;11.214;2023-03-30T18:19:24;8.40;99.90
25248;DHT22;13191;47.472;11.214;2023-03-30T18:21:53;8.30;99.90
25248;DHT22;13191;47.472;11.214;2023-03-30T18:24:18;8.30;99.90
25248;DHT22;13191;47.472;11.214;2023-03-30T18:26:44;8.40;99.90
25248;DHT22;13191;47.472;11.214;2023-03-30T18:29:17;8.40;99.90
25248;DHT22;13191;47.472;11.214;2023-03-30T18:31:47;8.30;99.90
25248;DHT22;13191;47.472;11.214;2023-03-30T18:34:13;8.20;99.90
25248;DHT22;13191;47.472;11.214;2023-03-30T18:36:40;8.20;99.90
25248;DHT22;13191;47.472;11.214;2023-03-30T18:39:08;8.10;99.90
25248;DHT22;13191;47.472;11.214;2023-03-30T18:44:00;7.90;99.90
25248;DHT22;13191;47.472;11.214;2023-03-30T18:48:51;7.70;99.90
25248;DHT22;13191;47.472;11.214;2023-03-30T18:51:17;7.70;99.90
25248;DHT22;13191;47.472;11.214;2023-03-30T18:53:43;7.60;99.90
25248;DHT22;13191;47.472;11.214;2023-03-30T18:56:09;7.60;99.90
25248;DHT22;13191;47.472;11.214;2023-03-30T18:58:35;7.50;99.90
25248;DHT22;13191;47.472;11.214;2023-03-30T19:01:06;7.40;99.90
25248;DHT22;13191;47.472;11.214;2023-03-30T19:03:32;7.40;99.90
25248;DHT22;13191;47.472;11.214;2023-03-30T19:05:57;7.40;99.90
25248;DHT22;13191;47.472;11.214;2023-03-30T19:08:23;7.30;99.90
25248;DHT22;13191;47.472;11.214;2023-03-30T19:10:50;7.30;99.90
25248;DHT22;13191;47.472;11.214;2023-03-30T19:13:17;7.00;99.90
25248;DHT22;13191;47.472;11.214;2023-03-30T19:15:43;7.00;99.90
25248;DHT22;13191;47.472;11.214;2023-03-30T19:18:09;6.90;99.90
25248;DHT22;13191;47.472;11.214;2023-03-30T19:20:35;6.90;99.90
25248;DHT22;13191;47.472;11.214;2023-03-30T19:23:06;6.80;99.90
25248;DHT22;13191;47.472;11.214;2023-03-30T19:25:32;6.70;99.90
25248;DHT22;13191;47.472;11.214;2023-03-30T19:27:58;6.80;99.90
25248;DHT22;13191;47.472;11.214;2023-03-30T19:30:25;6.70;99.90
25248;DHT22;13191;47.472;11.214;2023-03-30T19:32:53;6.80;99.90
25248;DHT22;13191;47.472;11.214;2023-03-30T19:35:19;6.70;99.90
25248;DHT22;13191;47.472;11.214;2023-03-30T19:37:45;6.70;99.90
25248;DHT22;13191;47.472;11.214;2023-03-30T19:40:12;6.60;99.90
25248;DHT22;13191;47.472;11.214;2023-03-30T19:42:37;6.60;99.90
25248;DHT22;13191;47.472;11.214;2023-03-30T19:45:03;6.60;99.90
25248;DHT22;13191;47.472;11.214;2023-03-30T19:47:30;6.70;99.90
25248;DHT22;13191;47.472;11.214;2023-03-30T19:49:59;6.60;99.90
25248;DHT22;13191;47.472;11.214;2023-03-30T19:52:25;6.70;99.90
25248;DHT22;13191;47.472;11.214;2023-03-30T19:54:51;6.70;99.90
25248;DHT22;13191;47.472;11.214;2023-03-30T19:57:17;6.80;99.90
25248;DHT22;13191;47.472;11.214;2023-03-30T19:59:43;6.70;99.90
25248;DHT22;13191;47.472;11.214;2023-03-30T20:02:09;6.70;99.90
25248;DHT22;13191;47.472;11.214;2023-03-30T20:04:38;6.60;99.90
25248;DHT22;13191;47.472;11.214;2023-03-30T20:09:30;6.30;99.90
25248;DHT22;13191;47.472;11.214;2023-03-30T20:11:55;6.40;99.90
25248;DHT22;13191;47.472;11.214;2023-03-30T20:14:22;6.40;99.90
25248;DHT22;13191;47.472;11.214;2023-03-30T20:16:48;6.40;99.90
25248;DHT22;13191;47.472;11.214;2023-03-30T20:19:14;6.40;99.90
25248;DHT22;13191;47.472;11.214;2023-03-30T20:21:39;6.40;99.90
25248;DHT22;13191;47.472;11.214;2023-03-30T20:24:05;6.40;99.90
25248;DHT22;13191;47.472;11.214;2023-03-30T20:26:31;6.30;99.90
25248;DHT22;13191;47.472;11.214;2023-03-30T20:28:57;6.20;99.90
25248;DHT22;13191;47.472;11.214;2023-03-30T20:31:23;6.20;99.90
25248;DHT22;13191;47.472;11.214;2023-03-30T20:33:48;6.10;99.90
25248;DHT22;13191;47.472;11.214;2023-03-30T20:36:14;6.00;99.90
25248;DHT22;13191;47.472;11.214;2023-03-30T20:38:40;5.80;99.90
25248;DHT22;13191;47.472;11.214;2023-03-30T20:41:06;5.90;99.90
25248;DHT22;13191;47.472;11.214;2023-03-30T20:43:31;5.90;99.90
25248;DHT22;13191;47.472;11.214;2023-03-30T20:46:01;6.00;99.90
25248;DHT22;13191;47.472;11.214;2023-03-30T20:48:27;6.10;99.90
25248;DHT22;13191;47.472;11.214;2023-03-30T20:51:01;6.10;99.90
25248;DHT22;13191;47.472;11.214;2023-03-30T20:53:31;6.00;99.90
25248;DHT22;13191;47.472;11.214;2023-03-30T20:55:58;6.00;99.90
25248;DHT22;13191;47.472;11.214;2023-03-30T20:58:23;6.00;99.90
25248;DHT22;13191;47.472;11.214;2023-03-30T21:00:50;6.00;99.90
25248;DHT22;13191;47.472;11.214;2023-03-30T21:03:22;6.00;99.90
25248;DHT22;13191;47.472;11.214;2023-03-30T21:05:57;6.00;99.90
25248;DHT22;13191;47.472;11.214;2023-03-30T21:08:22;6.00;99.90
25248;DHT22;13191;47.472;11.214;2023-03-30T21:10:48;6.10;99.90
25248;DHT22;13191;47.472;11.214;2023-03-30T21:13:13;6.10;99.90
25248;DHT22;13191;47.472;11.214;2023-03-30T21:15:41;6.10;99.90
25248;DHT22;13191;47.472;11.214;2023-03-30T21:18:06;6.00;99.90
25248;DHT22;13191;47.472;11.214;2023-03-30T21:20:32;6.10;99.90
25248;DHT22;13191;47.472;11.214;2023-03-30T21:22:57;6.00;99.90
25248;DHT22;13191;47.472;11.214;2023-03-30T21:25:23;6.00;99.90
25248;DHT22;13191;47.472;11.214;2023-03-30T21:27:48;6.00;99.90
25248;DHT22;13191;47.472;11.214;2023-03-30T21:30:14;6.00;99.90
25248;DHT22;13191;47.472;11.214;2023-03-30T21:32:40;5.90;99.90
25248;DHT22;13191;47.472;11.214;2023-03-30T21:35:05;5.90;99.90
25248;DHT22;13191;47.472;11.214;2023-03-30T21:37:31;5.90;99.90
25248;DHT22;13191;47.472;11.214;2023-03-30T21:39:56;5.90;99.90
25248;DHT22;13191;47.472;11.214;2023-03-30T21:42:22;5.80;99.90
25248;DHT22;13191;47.472;11.214;2023-03-30T21:44:47;5.80;99.90
25248;DHT22;13191;47.472;11.214;2023-03-30T21:47:13;5.80;99.90
25248;DHT22;13191;47.472;11.214;2023-03-30T21:49:41;5.90;99.90
25248;DHT22;13191;47.472;11.214;2023-03-30T21:52:06;5.90;99.90
25248;DHT22;13191;47.472;11.214;2023-03-30T21:54:32;6.00;99.90
25248;DHT22;13191;47.472;11.214;2023-03-30T21:56:57;5.90;99.90
25248;DHT22;13191;47.472;11.214;2023-03-30T21:59:23;6.00;99.90
25248;DHT22;13191;47.472;11.214;2023-03-30T22:01:48;6.00;99.90
25248;DHT22;13191;47.472;11.214;2023-03-30T22:04:14;6.00;99.90
25248;DHT22;13191;47.472;11.214;2023-03-30T22:06:39;6.00;99.90
25248;DHT22;13191;47.472;11.214;2023-03-30T22:09:05;6.10;99.90
25248;DHT22;13191;47.472;11.214;2023-03-30T22:11:30;6.10;99.90
25248;DHT22;13191;47.472;11.214;2023-03-30T22:13:56;6.10;99.90
25248;DHT22;13191;47.472;11.214;2023-03-30T22:16:22;6.10;99.90
25248;DHT22;13191;47.472;11.214;2023-03-30T22:18:48;6.10;99.90
25248;DHT22;13191;47.472;11.214;2023-03-30T22:21:15;6.10;99.90
25248;DHT22;13191;47.472;11.214;2023-03-30T22:23:41;6.10;99.90
25248;DHT22;13191;47.472;11.214;2023-03-30T22:26:07;5.90;99.90
25248;DHT22;13191;47.472;11.214;2023-03-30T22:28:33;5.90;99.90
25248;DHT22;13191;47.472;11.214;2023-03-30T22:30:58;5.90;99.90
25248;DHT22;13191;47.472;11.214;2023-03-30T22:33:25;6.00;99.90
25248;DHT22;13191;47.472;11.214;2023-03-30T22:35:51;6.00;99.90
25248;DHT22;13191;47.472;11.214;2023-03-30T22:38:16;5.90;99.90
25248;DHT22;13191;47.472;11.214;2023-03-30T22:40:42;5.90;99.90
25248;DHT22;13191;47.472;11.214;2023-03-30T22:43:08;5.80;99.90
25248;DHT22;13191;47.472;11.214;2023-03-30T22:45:33;5.80;99.90
25248;DHT22;13191;47.472;11.214;2023-03-30T22:47:59;5.80;99.90
25248;DHT22;13191;47.472;11.214;2023-03-30T22:50:25;5.70;99.90
25248;DHT22;13191;47.472;11.214;2023-03-30T22:52:52;5.70;99.90
25248;DHT22;13191;47.472;11.214;2023-03-30T22:55:18;5.70;99.90
25248;DHT22;13191;47.472;11.214;2023-03-30T22:57:43;5.60;99.90
25248;DHT22;13191;47.472;11.214;2023-03-30T23:00:09;5.50;99.90
25248;DHT22;13191;47.472;11.214;2023-03-30T23:02:36;5.50;99.90
25248;DHT22;13191;47.472;11.214;2023-03-30T23:05:05;5.60;99.90
25248;DHT22;13191;47.472;11.214;2023-03-30T23:07:34;5.50;99.90
25248;DHT22;13191;47.472;11.214;2023-03-30T23:10:01;5.60;99.90
25248;DHT22;13191;47.472;11.214;2023-03-30T23:12:32;5.60;99.90
25248;DHT22;13191;47.472;11.214;2023-03-30T23:14:58;5.70;99.90
25248;DHT22;13191;47.472;11.214;2023-03-30T23:17:24;5.60;99.90
25248;DHT22;13191;47.472;11.214;2023-03-30T23:19:51;5.60;99.90
25248;DHT22;13191;47.472;11.214;2023-03-30T23:22:21;5.60;99.90
25248;DHT22;13191;47.472;11.214;2023-03-30T23:24:46;5.70;99.90
25248;DHT22;13191;47.472;11.214;2023-03-30T23:27:12;5.70;99.90